Flight Track Log - Related Links

Times and Time Zones

All times are in EDT time to prevent confusion due to time zone crossing. See the GJS3707 flight status page for this flight to view local times or setup timezone preferences in your user account.

Time Position Orientation Groundspeed Altitude Reporting Facility
EDT Latitude Longitude Course Direction KTS MPH feet Rate Location/Type
Mon 03:29:48 PM 43.6172 -116.3872 294° West 262 302 5,500  Level Salt Lake Center
Mon 03:30:50 PM 43.6919 -116.3983 354° North 288 331 7,700 1,922 Climbing Salt Lake Center
Mon 03:31:00 PM 43.6476 -115.5740 82° East  Level FlightAware Approximate
Mon 03:31:56 PM 43.7172 -116.2986 71° East 289 333 9,600  Level Salt Lake Center
Mon 03:32:00 PM 43.6689 -115.4137 81° East  Level FlightAware Approximate
Mon 03:32:54 PM 43.7292 -116.1878 81° East 303 349 11,000  Level Salt Lake Center
Mon 03:33:00 PM 43.6936 -115.2525 65° Northeast  Level FlightAware Approximate
Mon 03:33:56 PM 43.7442 -116.0461 82° East 333 383 12,800  Level Salt Lake Center
Mon 03:34:00 PM 43.7161 -115.0892 81° East  Level FlightAware Approximate
Mon 03:34:58 PM 43.7578 -115.9186 82° East 346 398 14,500  Level Salt Lake Center
Mon 03:36:00 PM 43.7744 -115.7653 81° East 359 413 16,300 1,403 Climbing Salt Lake Center
Mon 03:37:02 PM 43.7889 -115.6242 82° East 383 441 17,400 1,113 Climbing Salt Lake Center
Mon 03:38:04 PM 43.8069 -115.4472 82° East 416 479 18,600 1,306 Climbing Salt Lake Center
Mon 03:39:06 PM 43.8233 -115.2911 82° East 428 493 20,100 1,548 Climbing Salt Lake Center
Mon 03:40:08 PM 43.8417 -115.1078 82° East 432 497 21,800 1,355 Climbing Salt Lake Center
Mon 03:41:10 PM 43.8583 -114.9489 82° East 437 503 22,900 1,073 Climbing Salt Lake Center
Mon 03:42:11 PM 43.8761 -114.7569 83° East 451 519 24,000 1,024 Climbing Salt Lake Center
Mon 03:43:13 PM 43.8928 -114.5906 82° East 458 527 25,000 1,016 Climbing Salt Lake Center
Mon 03:44:15 PM 43.9111 -114.3914 83° East 468 539 26,100 1,016 Climbing Salt Lake Center
Mon 03:45:17 PM 43.9275 -114.2197 82° East 472 543 27,100 1,016 Climbing Salt Lake Center
Mon 03:46:19 PM 43.9456 -114.0175 83° East 475 547 28,200 1,016 Climbing Salt Lake Center
Mon 03:47:21 PM 43.9617 -113.8325 83° East 476 548 29,200 823 Climbing Salt Lake Center
Mon 03:48:23 PM 43.9769 -113.6556 83° East 484 557 29,900 387 Climbing Salt Lake Center
Mon 03:49:25 PM 43.9917 -113.4464 84° East 488 562 30,000 48 Climbing Salt Lake Center
Mon 03:50:27 PM 44.0064 -113.2569 84° East 512 589 30,000  Level Salt Lake Center
Mon 03:51:29 PM 44.0239 -113.0658 83° East 521 600 30,000 390 Level Salt Lake Center
Mon 03:52:30 PM 44.0425 -112.8431 83° East 521 600 30,800 878 Climbing Salt Lake Center
Mon 03:53:32 PM 44.0556 -112.6561 84° East 512 589 31,800 919 Climbing Salt Lake Center
Mon 03:54:34 PM 44.0714 -112.4419 84° East 502 578 32,700 774 Climbing Salt Lake Center
Mon 03:55:36 PM 44.0847 -112.2572 84° East 504 580 33,400 726 Climbing Salt Lake Center
Mon 03:56:38 PM 44.0894 -112.0450 88° East 496 571 34,200 726 Climbing Salt Lake Center
Mon 03:57:40 PM 44.0914 -111.8647 89° East 492 566 34,900 677 Climbing Salt Lake Center
Mon 03:58:42 PM 44.0917 -111.6531 90° East 494 568 35,600 677 Climbing Salt Lake Center
Mon 03:59:44 PM 44.0933 -111.4717 89° East 494 568 36,300 677 Climbing Salt Lake Center
Mon 04:00:46 PM 44.0939 -111.2639 90° East 487 560 37,000 341 Climbing Salt Lake Center
Mon 04:01:47 PM 44.0936 -111.0833 90° East 488 562 37,000  Level Salt Lake Center
Mon 04:02:49 PM 44.0931 -110.8681 90° East 500 575 37,000  Level Salt Lake Center
Mon 04:03:51 PM 44.0933 -110.6836 90° East 501 577 37,000  Level Salt Lake Center
Mon 04:04:53 PM 44.0928 -110.4631 90° East 509 586 37,000  Level Salt Lake Center
Mon 04:05:55 PM 44.0919 -110.2761 90° East 507 583 37,000  Level Salt Lake Center
Mon 04:06:57 PM 44.0903 -110.0569 91° East 509 586 37,000  Level Salt Lake Center
Mon 04:07:59 PM 44.0883 -109.8681 91° East 509 586 37,000  Level Salt Lake Center
Mon 04:09:01 PM 44.0856 -109.6481 91° East 510 587 37,000  Level Salt Lake Center
Mon 04:10:03 PM 44.0836 -109.4594 91° East 512 589 37,000  Level Salt Lake Center
Mon 04:11:04 PM 44.0786 -109.2458 92° East 507 583 37,000  Level Salt Lake Center
Mon 04:12:06 PM 44.0758 -109.0489 91° East 511 588 37,000  Level Salt Lake Center
Mon 04:13:08 PM 44.0714 -108.8536 92° East 510 587 37,000  Level Salt Lake Center
Mon 04:14:10 PM 44.0675 -108.6578 92° East 510 587 37,000  Level Salt Lake Center
Mon 04:15:12 PM 44.0639 -108.4628 91° East 509 586 37,000  Level Salt Lake Center
Mon 04:16:14 PM 44.0583 -108.2689 92° East 507 583 37,000  Level Salt Lake Center
Mon 04:17:16 PM 44.0533 -108.0350 92° East 508 585 37,000  Level Salt Lake Center
Mon 04:18:18 PM 44.0469 -107.8411 93° East 507 583 37,000  Level Salt Lake Center
Mon 04:19:20 PM 44.0417 -107.6481 92° East 506 582 37,000  Level Salt Lake Center
Mon 04:20:21 PM 44.0358 -107.4567 92° East 502 578 37,000  Level Salt Lake Center
Mon 04:21:23 PM 44.0297 -107.2639 92° East 503 579 37,000  Level Salt Lake Center
Mon 04:22:11 PM 44.0253 -107.1094 92° East 504 580 37,000  Level Denver Center
Mon 04:23:13 PM 44.0167 -106.8792 93° East 503 579 37,000  Level Denver Center
Mon 04:24:15 PM 44.0103 -106.7100 93° East 498 573 37,000  Level Denver Center
Mon 04:25:17 PM 44.0028 -106.4939 93° East 501 577 37,000  Level Denver Center
Mon 04:26:18 PM 44.0008 -106.3081 91° East 500 575 37,000  Level Denver Center
Mon 04:27:20 PM 44.0044 -106.0911 89° East 502 578 37,000  Level Denver Center
Mon 04:28:22 PM 44.0039 -105.9078 90° East 499 574 37,000  Level Denver Center
Mon 04:29:24 PM 44.0044 -105.6922 90° East 499 574 37,000  Level Denver Center
Mon 04:30:26 PM 44.0047 -105.5072 90° East 499 574 37,000  Level Denver Center
Mon 04:31:27 PM 44.0050 -105.2917 90° East 499 574 37,000  Level Denver Center
Mon 04:32:29 PM 44.0036 -105.1072 91° East 499 574 37,000  Level Denver Center
Mon 04:33:31 PM 44.0031 -104.9247 90° East 496 571 37,000  Level Denver Center
Mon 04:34:33 PM 44.0008 -104.7106 91° East 496 571 37,000  Level Denver Center
Mon 04:35:35 PM 44.0008 -104.5275 90° East 495 570 37,000  Level Denver Center
Mon 04:36:36 PM 43.9981 -104.3144 91° East 495 570 37,000  Level Denver Center
Mon 04:37:38 PM 43.9958 -104.1328 91° East 494 568 37,000  Level Denver Center
Mon 04:38:40 PM 43.9933 -103.9194 91° East 494 568 37,000  Level Denver Center
Mon 04:39:42 PM 43.9900 -103.7364 91° East 495 570 37,000  Level Denver Center
Mon 04:40:44 PM 43.9867 -103.5533 91° East 495 570 37,000  Level Denver Center
Mon 04:41:46 PM 43.9847 -103.3436 91° East 489 563 37,000  Level Denver Center
Mon 04:42:48 PM 43.9819 -103.1642 91° East 487 560 37,000  Level Denver Center
Mon 04:43:49 PM 43.9769 -102.9511 92° East 491 565 37,000  Level Denver Center
Mon 04:44:51 PM 43.9708 -102.7567 92° East 492 566 37,000  Level Denver Center
Mon 04:45:53 PM 43.9650 -102.5692 92° East 489 563 37,000  Level Denver Center
Mon 04:46:55 PM 43.9569 -102.3789 93° East 491 565 37,000  Level Denver Center
Mon 04:47:57 PM 43.9503 -102.1911 93° East 491 565 37,000  Level Denver Center
Mon 04:48:59 PM 43.9419 -102.0019 93° East 492 566 37,000  Level Denver Center
Mon 04:50:01 PM 43.9347 -101.8144 93° East 490 564 37,000  Level Denver Center
Mon 04:51:02 PM 43.9319 -101.5969 91° East 478 550 37,000  Level Denver Center
Mon 04:52:04 PM 43.9239 -101.4103 93° East 484 557 37,000  Level Denver Center
Mon 04:53:06 PM 43.9169 -101.2253 93° East 483 556 37,000  Level Denver Center
Mon 04:53:58 PM 43.9111 -101.0783 93° East 483 556 37,000  Level Minneapolis Center
Mon 04:55:00 PM 43.9033 -100.8928 93° East 483 556 37,000  Level Minneapolis Center
Mon 04:56:02 PM 43.8928 -100.6714 94° East 483 556 37,000  Level Minneapolis Center
Mon 04:57:04 PM 43.8844 -100.4858 94° East 484 557 37,000  Level Minneapolis Center
Mon 04:58:06 PM 43.8747 -100.3008 94° East 485 558 37,000  Level Minneapolis Center
Mon 04:59:08 PM 43.8667 -100.1178 93° East 482 555 37,000  Level Minneapolis Center
Mon 05:00:10 PM 43.8581 -99.9372 94° East 476 548 37,000  Level Minneapolis Center
Mon 05:01:12 PM 43.8475 -99.7564 95° East 475 547 37,000  Level Minneapolis Center
Mon 05:02:14 PM 43.8350 -99.5406 95° East 471 542 37,000  Level Minneapolis Center
Mon 05:03:16 PM 43.8267 -99.3603 94° East 471 542 37,000  Level Minneapolis Center
Mon 05:04:19 PM 43.8156 -99.1828 95° East 468 539 37,000  Level Minneapolis Center
Mon 05:05:21 PM 43.8042 -99.0033 95° East 469 540 37,000  Level Minneapolis Center
Mon 05:06:23 PM 43.7936 -98.8231 95° East 471 542 37,000  Level Minneapolis Center
Mon 05:07:25 PM 43.7828 -98.6317 94° East 473 544 37,000  Level Minneapolis Center
Mon 05:08:27 PM 43.7706 -98.4519 95° East 471 542 37,000  Level Minneapolis Center
Mon 05:09:29 PM 43.7564 -98.2367 95° East 470 541 37,000  Level Minneapolis Center
Mon 05:10:31 PM 43.7447 -98.0572 95° East 470 541 37,000  Level Minneapolis Center
Mon 05:11:33 PM 43.7322 -97.8794 95° East 468 539 37,000  Level Minneapolis Center
Mon 05:12:35 PM 43.7189 -97.7008 96° East 469 540 37,000  Level Minneapolis Center
Mon 05:13:37 PM 43.7064 -97.5231 95° East 468 539 37,000  Level Minneapolis Center
Mon 05:14:39 PM 43.6931 -97.3461 96° East 467 537 37,000  Level Minneapolis Center
Mon 05:15:41 PM 43.6769 -97.1347 96° East 465 535 37,000  Level Minneapolis Center
Mon 05:16:43 PM 43.6625 -96.9569 96° East 468 539 37,000  Level Minneapolis Center
Mon 05:17:45 PM 43.6483 -96.7811 96° East 466 536 37,000  Level Minneapolis Center
Mon 05:18:49 PM 43.6247 -96.6092 101° East 462 532 37,000  Level Minneapolis Center
Mon 05:19:51 PM 43.5931 -96.4025 102° East 463 533 37,000  Level Minneapolis Center
Mon 05:20:53 PM 43.5681 -96.2303 101° East 463 533 37,000  Level Minneapolis Center
Mon 05:21:55 PM 43.5503 -96.0564 98° East 465 535 37,000  Level Minneapolis Center
Mon 05:22:57 PM 43.5400 -95.8786 94° East 469 540 37,000  Level Minneapolis Center
Mon 05:24:00 PM 43.5283 -95.7028 95° East 467 537 37,000  Level Minneapolis Center
Mon 05:25:01 PM 43.5169 -95.5269 95° East 466 536 37,000  Level Minneapolis Center
Mon 05:26:04 PM 43.5022 -95.3150 95° East 465 535 37,000  Level Minneapolis Center
Mon 05:27:06 PM 43.4889 -95.1381 96° East 466 536 37,000  Level Minneapolis Center
Mon 05:28:08 PM 43.4753 -94.9617 96° East 466 536 37,000  Level Minneapolis Center
Mon 05:29:10 PM 43.4625 -94.7833 96° East 468 539 37,000  Level Minneapolis Center
Mon 05:30:24 PM 43.4461 -94.5708 96° East 468 539 37,000  Level Minneapolis Center
Mon 05:31:27 PM 43.4300 -94.3572 96° East 469 540 37,000  Level Minneapolis Center
Mon 05:32:29 PM 43.4150 -94.1767 96° East 471 542 37,000  Level Minneapolis Center
Mon 05:33:31 PM 43.4000 -93.9994 97° East 471 542 37,000  Level Minneapolis Center
Mon 05:34:33 PM 43.3864 -93.8228 96° East 471 542 37,000  Level Minneapolis Center
Mon 05:35:35 PM 43.3706 -93.6447 97° East 473 544 37,000  Level Minneapolis Center
Mon 05:36:37 PM 43.3525 -93.4325 97° East 471 542 37,000  Level Minneapolis Center
Mon 05:37:39 PM 43.3364 -93.2550 97° East 472 543 37,000  Level Minneapolis Center
Mon 05:38:41 PM 43.3217 -93.0767 96° East 474 545 37,000  Level Minneapolis Center
Mon 05:39:43 PM 43.3050 -92.8989 97° East 473 544 37,000  Level Minneapolis Center
Mon 05:40:57 PM 43.2886 -92.7214 97° East 473 544 37,000 -131 Level Minneapolis Center
Mon 05:42:00 PM 43.2664 -92.4700 97° East 476 548 36,700 -677 Descending Minneapolis Center
Mon 05:43:01 PM 43.2522 -92.3283 98° East 475 547 35,600 -1,258 Descending Minneapolis Center
Mon 05:44:04 PM 43.2319 -92.1189 97° East 467 537 34,100 -1,344 Descending Minneapolis Center
Mon 05:45:06 PM 43.2153 -91.9419 97° East 468 539 32,800 -1,258 Descending Minneapolis Center
Mon 05:46:08 PM 43.1975 -91.7619 98° East 474 545 31,500 -871 Descending Minneapolis Center
Mon 05:47:10 PM 43.1622 -91.5878 105° East 478 550 31,000 -222 Descending Minneapolis Center
Mon 05:48:23 PM 43.0814 -91.3564 115° Southeast 483 556 31,000  Level Chicago Center
Mon 05:49:25 PM 43.0231 -91.1883 115° Southeast 487 560 31,000  Level Chicago Center
Mon 05:50:27 PM 42.9647 -91.0211 115° Southeast 489 563 31,000  Level Chicago Center
Mon 05:51:30 PM 42.9067 -90.8553 115° Southeast 488 562 31,000  Level Chicago Center
Mon 05:52:32 PM 42.8475 -90.6883 116° Southeast 493 567 31,000  Level Chicago Center
Mon 05:53:34 PM 42.7897 -90.5239 116° Southeast 487 560 31,000 -242 Level Chicago Center
Mon 05:54:36 PM 42.7192 -90.3264 116° Southeast 488 562 30,500 -968 Descending Chicago Center
Mon 05:55:38 PM 42.6586 -90.1653 117° Southeast 478 550 29,000 -1,452 Descending Chicago Center
Mon 05:56:40 PM 42.6053 -90.0167 116° Southeast 457 526 27,500 -1,645 Descending Chicago Center
Mon 05:57:42 PM 42.5472 -89.8606 117° Southeast 454 522 25,600 -2,371 Descending Chicago Center
Mon 05:58:44 PM 42.5144 -89.6758 103° East 444 511 22,600 -2,613 Descending Chicago Center
Mon 05:59:46 PM 42.5128 -89.5144 91° East 435 501 20,200 -2,129 Descending Chicago Center
Mon 06:00:48 PM 42.5089 -89.3572 92° East 423 487 18,200 -1,776 Descending Chicago Center
Mon 06:01:51 PM 42.5075 -89.2083 91° East 403 464 16,500 -1,776 Descending Chicago Center
Mon 06:02:53 PM 42.5067 -89.0636 90° East 389 448 14,500 -2,081 Descending Chicago Center
Mon 06:03:55 PM 42.4961 -88.9064 95° East 368 423 12,200 -2,032 Descending Chicago Center
Mon 06:04:57 PM 42.4600 -88.7794 111° Southeast 363 418 10,300 -1,258 Descending Chicago Center
Mon 06:05:59 PM 42.4283 -88.6775 113° Southeast 301 346 9,600 -629 Descending Chicago Center
Mon 06:07:01 PM 42.3981 -88.5797 113° Southeast 284 327 9,000 -290 Descending Chicago Center
Mon 06:08:03 PM 42.3639 -88.4811 115° Southeast 291 335 9,000  Level Chicago Center
Mon 06:09:05 PM 42.2936 -88.4386 156° South 276 318 9,000 -532 Level Chicago Center
Mon 06:10:07 PM 42.2244 -88.3931 154° Southeast 277 319 7,900 -1,584 Descending Chicago Center
Mon 06:11:10 PM 42.1472 -88.3281 148° Southeast 275 316 5,700 -1,824 Descending Chicago Center
Mon 06:12:12 PM 42.0878 -88.2678 143° Southeast 271 312 4,100 -823 Descending Chicago Center
Mon 06:13:14 PM 42.0300 -88.2114 144° Southeast 263 303 4,000 -290 Descending Chicago Center
Mon 06:14:16 PM 41.9933 -88.1567 132° Southeast 214 246 3,500 -484 Descending Chicago Center

Login

Don't have an account? Register now (free) for customized features, flight alerts, and more!